If you wish to contribute or participate in the discussions about articles you are invited to join SKYbrary as a registered user

 Actions

Tainan Airport

From SKYbrary Wiki

RCNN
Airport
ICAO: RCNN – IATA: TNN
Summary
Name Tainan Airport
Region Asia and Pacific
Territory Taiwan TW.gif
Location Tainan, Tainan
Serving Tainan
Elevation 19.202 m
63 ft
63 ft19.202 m
Type medium airport
Coordinates 22° 57' 1.30" N, 120° 12' 20.80" E
Runways
Designator Length Width Surface ROPS
18L/36R 3050 m10,006.562 ft
45 m147.638 ft
CON yes/yes
18R/36L 3050 m10,006.562 ft
45 m147.638 ft
CON yes/yes


METAR
Observation RCNN 150300Z 23005KT 9999 FEW014 31/20 Q1017 NOSIG RMK A3004
Station Tainan Tw-Afb
Date/Time 15 October 2019 03:00:00
Wind direction 230°
Wind speed 05 kts
Lowest cloud amount few clouds
Temperature 31°C
Dew point 20°C
Humidity 52%
QNH 1017 hPa
Weather condition n/a

Maps

Terrain

Loading map...

Airport Layout

Loading map...


Accidents & Serious Incidents at or in vicinity of RCNN

None on SKYbrary